createdAt,value
2019-05-06T00:01:44.219Z,84.80
2019-05-06T00:04:48.628Z,85.24
2019-05-06T00:07:54.482Z,85.27
2019-05-06T00:10:59.969Z,85.11
2019-05-06T00:14:04.425Z,85.18
2019-05-06T00:17:08.788Z,84.84
2019-05-06T00:20:14.660Z,84.93
2019-05-06T00:23:27.118Z,84.83
2019-05-06T00:26:50.360Z,85.28
2019-05-06T00:29:55.092Z,85.23
2019-05-06T00:32:59.423Z,85.45
2019-05-06T00:36:04.663Z,85.55
2019-05-06T00:39:24.449Z,86.29
2019-05-06T00:42:34.665Z,86.68
2019-05-06T00:45:38.630Z,87.62
2019-05-06T00:48:44.775Z,88.72
2019-05-06T00:51:48.975Z,89.55
2019-05-06T00:54:54.720Z,90.02
2019-05-06T00:57:59.123Z,90.14
2019-05-06T01:01:04.667Z,90.42
2019-05-06T01:04:09.086Z,90.43
2019-05-06T01:07:14.008Z,90.55
2019-05-06T01:10:18.543Z,89.98
2019-05-06T01:13:37.296Z,89.98
2019-05-06T01:16:43.842Z,89.93
2019-05-06T01:19:47.579Z,89.29
2019-05-06T01:22:51.842Z,89.64
2019-05-06T01:25:56.115Z,89.76
2019-05-06T01:29:00.374Z,90.07
2019-05-06T01:32:04.648Z,90.04
2019-05-06T01:35:08.925Z,90.33
2019-05-06T01:38:38.073Z,90.42
2019-05-06T01:41:59.970Z,90.63
2019-05-06T01:45:04.827Z,90.32
2019-05-06T01:48:09.097Z,90.44
2019-05-06T01:51:14.286Z,90.35
2019-05-06T01:54:18.604Z,90.43
2019-05-06T01:57:24.452Z,90.59
2019-05-06T02:00:28.859Z,90.99
2019-05-06T02:03:34.706Z,90.98
2019-05-06T02:06:39.017Z,91.03
2019-05-06T02:09:44.745Z,90.54
2019-05-06T02:12:49.177Z,90.01
2019-05-06T02:15:54.786Z,89.58
2019-05-06T02:18:59.088Z,89.54
2019-05-06T02:22:13.467Z,90.43
2019-05-06T02:25:21.506Z,91.74
2019-05-06T02:28:25.881Z,92.61
2019-05-06T02:32:17.406Z,92.48
2019-05-06T02:35:19.639Z,92.83
2019-05-06T02:38:32.699Z,92.64
2019-05-06T02:41:33.727Z,92.89
2019-05-06T02:44:38.032Z,93.62
2019-05-06T02:47:49.993Z,94.10
2019-05-06T02:50:59.746Z,94.69
2019-05-06T02:54:04.083Z,94.60
2019-05-06T02:57:08.362Z,94.13
2019-05-06T03:00:15.200Z,94.03
2019-05-06T03:03:19.459Z,94.25
2019-05-06T03:06:24.042Z,94.27
2019-05-06T03:09:28.277Z,94.65
2019-05-06T03:12:33.504Z,94.87
2019-05-06T03:15:37.842Z,95.01
2019-05-06T03:18:43.368Z,95.02
2019-05-06T03:21:59.316Z,95.20
2019-05-06T03:25:13.342Z,95.28
2019-05-06T03:28:16.816Z,95.31
2019-05-06T03:31:25.785Z,95.34
2019-05-06T03:34:49.783Z,95.43
2019-05-06T03:37:33.630Z,95.41
2019-05-06T03:40:41.838Z,95.29
2019-05-06T03:43:43.938Z,95.28
2019-05-06T03:47:06.025Z,95.17
2019-05-06T03:50:13.116Z,95.38
2019-05-06T03:53:16.613Z,95.36
2019-05-06T03:56:23.893Z,95.11
2019-05-06T03:59:33.253Z,94.94
2019-05-06T04:02:39.536Z,95.23
2019-05-06T04:05:43.711Z,95.03
2019-05-06T04:08:49.230Z,94.53
2019-05-06T04:11:54.340Z,94.20
2019-05-06T04:14:58.716Z,93.89
2019-05-06T04:18:07.237Z,93.71
2019-05-06T04:21:18.316Z,93.52
2019-05-06T04:24:43.080Z,93.47
2019-05-06T04:27:56.712Z,93.74
2019-05-06T04:31:02.665Z,93.88
2019-05-06T04:34:14.056Z,94.07
2019-05-06T04:37:14.459Z,93.79
2019-05-06T04:40:18.877Z,93.63
2019-05-06T04:43:26.763Z,93.54
2019-05-06T04:46:29.375Z,92.74
2019-05-06T04:49:33.702Z,92.81
2019-05-06T04:52:38.033Z,93.33
2019-05-06T04:55:43.599Z,93.76
2019-05-06T04:58:48.481Z,93.95
2019-05-06T05:01:53.425Z,93.58
2019-05-06T05:04:58.045Z,93.38
2019-05-06T05:08:02.713Z,92.91
2019-05-06T05:11:22.666Z,92.45
2019-05-06T05:14:42.289Z,91.78
2019-05-06T05:18:12.890Z,90.88
2019-05-06T05:21:16.954Z,91.63
2019-05-06T05:24:23.407Z,91.00
2019-05-06T05:27:27.351Z,91.06
2019-05-06T05:30:32.811Z,91.15
2019-05-06T05:33:37.542Z,90.96
2019-05-06T05:36:42.591Z,90.62
2019-05-06T05:39:47.070Z,90.83
2019-05-06T05:43:16.082Z,89.83
2019-05-06T05:46:21.875Z,88.95
2019-05-06T05:49:45.420Z,88.29
2019-05-06T05:52:51.902Z,87.74
2019-05-06T05:55:57.766Z,86.02
2019-05-06T05:59:03.266Z,85.78
2019-05-06T06:02:07.805Z,85.40
2019-05-06T06:05:12.501Z,85.77
2019-05-06T06:08:16.936Z,86.03
2019-05-06T06:11:43.842Z,85.40
2019-05-06T06:15:15.106Z,84.66
2019-05-06T06:18:43.117Z,84.94
2019-05-06T06:22:00.130Z,83.68
2019-05-06T06:25:05.099Z,84.38
2019-05-06T06:28:09.380Z,85.06
2019-05-06T06:31:19.457Z,85.11
2019-05-06T06:34:32.968Z,83.96
2019-05-06T06:37:56.597Z,82.35
2019-05-06T06:41:02.779Z,80.59
2019-05-06T06:44:13.085Z,78.75
2019-05-06T06:47:16.924Z,76.80
2019-05-06T06:50:22.062Z,78.00
2019-05-06T06:53:26.679Z,75.39
2019-05-06T06:57:07.894Z,75.18
2019-05-06T07:00:22.309Z,72.79
2019-05-06T07:03:33.685Z,73.15
2019-05-06T07:06:56.915Z,70.76
2019-05-06T07:10:02.640Z,71.98
2019-05-06T07:13:07.365Z,77.70
2019-05-06T07:16:12.372Z,82.49
2019-05-06T07:19:20.035Z,86.58
2019-05-06T07:22:27.672Z,88.92
2019-05-06T07:25:33.598Z,89.91
2019-05-06T07:28:38.045Z,90.88
2019-05-06T07:31:42.721Z,91.53
2019-05-06T07:34:47.010Z,92.50
2019-05-06T07:37:53.015Z,91.48
2019-05-06T07:41:14.869Z,88.79
2019-05-06T07:44:38.375Z,88.73
2019-05-06T07:47:47.869Z,88.99
2019-05-06T07:50:52.161Z,88.51
2019-05-06T07:53:56.423Z,87.31
2019-05-06T07:57:02.374Z,87.77
2019-05-06T08:00:07.267Z,85.84
2019-05-06T08:03:14.002Z,81.83
2019-05-06T08:06:17.562Z,83.84
2019-05-06T08:09:22.201Z,82.58
2019-05-06T08:12:26.544Z,81.62
2019-05-06T08:15:32.590Z,78.52
2019-05-06T08:18:36.862Z,76.30
2019-05-06T08:21:42.881Z,76.95
2019-05-06T08:24:47.182Z,78.83
2019-05-06T08:27:53.201Z,80.65
2019-05-06T08:30:57.622Z,81.65
2019-05-06T08:34:02.678Z,82.27
2019-05-06T08:37:17.282Z,80.66
2019-05-06T08:40:22.692Z,78.24
2019-05-06T08:43:27.606Z,78.10
2019-05-06T08:46:32.630Z,78.09
2019-05-06T08:49:54.548Z,75.62
2019-05-06T08:53:06.039Z,77.83
2019-05-06T08:56:16.282Z,82.67
2019-05-06T08:59:19.680Z,84.49
2019-05-06T09:02:24.365Z,84.88
2019-05-06T09:05:28.628Z,83.46
2019-05-06T09:08:32.912Z,82.16
2019-05-06T09:11:37.521Z,83.36
2019-05-06T09:14:43.096Z,82.50
2019-05-06T09:17:47.586Z,76.91
2019-05-06T09:20:53.732Z,78.13
2019-05-06T09:23:58.486Z,79.76
2019-05-06T09:27:22.606Z,76.69
2019-05-06T09:30:37.824Z,73.19
2019-05-06T09:33:56.762Z,72.06
2019-05-06T09:37:18.169Z,68.20
2019-05-06T09:40:22.820Z,77.07
2019-05-06T09:43:27.215Z,81.67
2019-05-06T09:46:32.182Z,82.98
2019-05-06T09:49:37.505Z,84.16
2019-05-06T09:52:42.728Z,79.37
2019-05-06T09:56:06.103Z,78.51
2019-05-06T09:59:12.778Z,77.77
2019-05-06T10:02:16.376Z,76.54
2019-05-06T10:05:20.693Z,75.99
2019-05-06T10:08:25.118Z,75.09
2019-05-06T10:11:29.412Z,73.77
2019-05-06T10:14:33.890Z,76.52
2019-05-06T10:17:38.193Z,79.17
2019-05-06T10:20:45.793Z,78.69
2019-05-06T10:23:50.095Z,76.61
2019-05-06T10:26:57.745Z,76.76
2019-05-06T10:30:05.413Z,73.77
2019-05-06T10:33:13.249Z,76.22
2019-05-06T10:36:17.751Z,73.21
2019-05-06T10:39:25.094Z,70.37
2019-05-06T10:42:42.961Z,69.83
2019-05-06T10:45:46.974Z,66.36
2019-05-06T10:48:53.036Z,68.14
2019-05-06T10:52:07.591Z,69.06
2019-05-06T10:55:12.369Z,74.99
2019-05-06T10:58:16.713Z,78.81
2019-05-06T11:01:26.712Z,79.81
2019-05-06T11:04:33.131Z,77.28
2019-05-06T11:07:37.305Z,78.47
2019-05-06T11:10:45.144Z,79.47
2019-05-06T11:13:47.841Z,74.63
2019-05-06T11:16:52.118Z,75.40
2019-05-06T11:19:56.427Z,75.34
2019-05-06T11:23:02.103Z,75.54
2019-05-06T11:26:06.525Z,71.69
2019-05-06T11:29:16.341Z,71.93
2019-05-06T11:32:33.029Z,70.34
2019-05-06T11:35:52.748Z,68.81
2019-05-06T11:38:57.410Z,67.64
2019-05-06T11:42:23.757Z,66.84
2019-05-06T11:45:08.223Z,66.62
2019-05-06T11:48:14.616Z,64.28
2019-05-06T11:51:20.234Z,63.59
2019-05-06T11:54:24.840Z,60.65
2019-05-06T11:57:29.196Z,62.02
2019-05-06T12:00:37.968Z,61.43
2019-05-06T12:03:42.661Z,59.37
2019-05-06T12:06:47.227Z,58.90
2019-05-06T12:09:53.918Z,55.84
2019-05-06T12:12:57.570Z,55.62
2019-05-06T12:16:04.688Z,56.09
2019-05-06T12:19:09.107Z,56.83
2019-05-06T12:22:13.409Z,58.72
2019-05-06T12:25:17.996Z,62.21
2019-05-06T12:28:22.337Z,64.18
2019-05-06T12:31:26.621Z,65.54
2019-05-06T12:34:32.409Z,63.61
2019-05-06T12:37:38.209Z,61.45
2019-05-06T12:40:42.987Z,57.13
2019-05-06T12:43:51.036Z,57.02
2019-05-06T12:47:03.487Z,54.86
2019-05-06T12:50:07.973Z,51.56
2019-05-06T12:53:13.335Z,52.58
2019-05-06T12:56:17.689Z,54.93
2019-05-06T12:59:22.402Z,55.39
2019-05-06T13:02:26.781Z,58.02
2019-05-06T13:05:31.944Z,61.09
2019-05-06T13:08:54.099Z,62.85
2019-05-06T13:11:43.110Z,63.13
2019-05-06T13:14:47.590Z,62.59
2019-05-06T13:17:53.111Z,60.89
2019-05-06T13:20:57.598Z,58.04
2019-05-06T13:24:05.516Z,59.89
2019-05-06T13:27:12.578Z,56.14
2019-05-06T13:30:17.127Z,54.90
2019-05-06T13:33:44.066Z,56.75
2019-05-06T13:36:48.335Z,54.53
2019-05-06T13:39:53.116Z,55.44
2019-05-06T13:43:15.293Z,60.06
2019-05-06T13:46:25.793Z,62.02
2019-05-06T13:49:44.964Z,64.28
2019-05-06T13:53:07.245Z,60.06
2019-05-06T13:55:56.524Z,59.92
2019-05-06T13:59:00.872Z,64.14
2019-05-06T14:02:27.475Z,68.31
2019-05-06T14:05:32.993Z,70.40
2019-05-06T14:08:37.354Z,74.69
2019-05-06T14:11:42.054Z,74.90
2019-05-06T14:14:46.424Z,75.11
2019-05-06T14:17:53.232Z,71.20
2019-05-06T14:20:57.354Z,68.22
2019-05-06T14:24:02.490Z,66.21
2019-05-06T14:27:11.594Z,65.80
2019-05-06T14:30:22.752Z,65.44
2019-05-06T14:33:27.173Z,68.61
2019-05-06T14:36:32.767Z,67.30
2019-05-06T14:39:52.167Z,64.68
2019-05-06T14:42:45.875Z,64.23
2019-05-06T14:45:50.221Z,62.77
2019-05-06T14:48:54.537Z,63.94
2019-05-06T14:51:58.827Z,64.22
2019-05-06T14:55:12.582Z,64.14
2019-05-06T14:58:16.603Z,65.37
2019-05-06T15:01:24.013Z,66.12
2019-05-06T15:04:28.309Z,66.12
2019-05-06T15:07:33.021Z,64.46
2019-05-06T15:10:37.362Z,62.38
2019-05-06T15:13:42.673Z,62.12
2019-05-06T15:16:47.155Z,61.29
2019-05-06T15:19:52.558Z,61.93
2019-05-06T15:22:57.238Z,61.33
2019-05-06T15:26:03.051Z,57.50
2019-05-06T15:29:07.401Z,57.48
2019-05-06T15:32:28.073Z,56.22
2019-05-06T15:35:49.656Z,52.39
2019-05-06T15:38:53.989Z,55.66
2019-05-06T15:41:58.309Z,58.74
2019-05-06T15:45:02.620Z,60.73
2019-05-06T15:48:06.948Z,60.42
2019-05-06T15:51:12.238Z,57.42
2019-05-06T15:54:35.675Z,56.67
2019-05-06T15:57:39.956Z,54.26
2019-05-06T16:00:44.226Z,54.26
2019-05-06T16:03:48.523Z,54.01
2019-05-06T16:06:53.147Z,52.88
2019-05-06T16:09:57.415Z,52.91
2019-05-06T16:13:02.324Z,52.91
2019-05-06T16:16:07.106Z,53.25
2019-05-06T16:19:12.890Z,53.02
2019-05-06T16:22:17.225Z,50.61
2019-05-06T16:25:21.554Z,51.38
2019-05-06T16:28:28.925Z,50.99
2019-05-06T16:31:35.028Z,53.23
2019-05-06T16:34:39.314Z,53.09
2019-05-06T16:37:43.617Z,53.09
2019-05-06T16:40:47.922Z,52.40
2019-05-06T16:43:52.471Z,50.74
2019-05-06T16:46:56.858Z,50.25
2019-05-06T16:50:01.169Z,51.22
2019-05-06T16:53:05.454Z,49.75
2019-05-06T16:56:19.562Z,50.46
2019-05-06T16:59:23.944Z,52.76
2019-05-06T17:02:35.384Z,53.80
2019-05-06T17:06:01.446Z,53.80
2019-05-06T17:09:20.151Z,55.04
2019-05-06T17:12:14.675Z,58.03
2019-05-06T17:15:18.958Z,58.03
2019-05-06T17:18:23.271Z,56.38
2019-05-06T17:21:27.568Z,56.37
2019-05-06T17:24:33.102Z,56.37
2019-05-06T17:27:38.949Z,57.50
2019-05-06T17:30:56.196Z,57.30
2019-05-06T17:34:02.497Z,57.98
2019-05-06T17:37:28.665Z,58.87
2019-05-06T17:40:33.022Z,55.89
2019-05-06T17:43:40.736Z,56.42
2019-05-06T17:46:52.677Z,56.42
2019-05-06T17:49:57.026Z,58.13
2019-05-06T17:53:01.355Z,56.46
2019-05-06T17:56:06.073Z,57.70
2019-05-06T17:59:10.377Z,58.53
2019-05-06T18:02:19.176Z,59.71
2019-05-06T18:05:23.068Z,60.43
2019-05-06T18:08:27.353Z,61.91
2019-05-06T18:11:33.192Z,62.99
2019-05-06T18:14:37.753Z,63.34
2019-05-06T18:17:42.613Z,64.14
2019-05-06T18:20:47.023Z,64.99
2019-05-06T18:23:52.265Z,66.02
2019-05-06T18:26:57.221Z,66.71
2019-05-06T18:30:13.324Z,68.20
2019-05-06T18:33:07.615Z,68.27
2019-05-06T18:36:12.976Z,69.91
2019-05-06T18:39:17.522Z,74.48
2019-05-06T18:42:23.694Z,76.66
2019-05-06T18:45:27.999Z,78.79
2019-05-06T18:48:35.100Z,78.12
2019-05-06T18:51:38.567Z,78.85
2019-05-06T18:54:43.131Z,78.05
2019-05-06T18:57:47.559Z,78.29
2019-05-06T19:00:53.032Z,79.35
2019-05-06T19:04:28.684Z,77.51
2019-05-06T19:07:33.441Z,78.01
2019-05-06T19:10:37.812Z,78.68
2019-05-06T19:13:42.229Z,78.57
2019-05-06T19:16:52.089Z,77.79
2019-05-06T19:19:52.721Z,77.79
2019-05-06T19:22:57.126Z,77.93
2019-05-06T19:26:02.868Z,77.38
2019-05-06T19:29:07.468Z,78.09
2019-05-06T19:32:12.368Z,77.83
2019-05-06T19:35:16.945Z,77.11
2019-05-06T19:38:22.338Z,77.82
2019-05-06T19:41:27.814Z,77.48
2019-05-06T19:44:32.613Z,77.91
2019-05-06T19:47:38.526Z,77.48
2019-05-06T19:50:43.292Z,77.28
2019-05-06T19:53:47.793Z,77.29
2019-05-06T19:56:52.877Z,77.49
2019-05-06T19:59:57.279Z,77.09
2019-05-06T20:03:02.748Z,77.01
2019-05-06T20:06:34.988Z,75.63
2019-05-06T20:09:58.306Z,76.26
2019-05-06T20:13:05.394Z,77.16
2019-05-06T20:16:09.443Z,77.44
2019-05-06T20:19:27.615Z,78.27
2019-05-06T20:22:20.435Z,78.76
2019-05-06T20:25:26.054Z,79.57
2019-05-06T20:28:32.244Z,80.28
2019-05-06T20:31:36.673Z,80.81
2019-05-06T20:34:42.840Z,81.00
2019-05-06T20:37:47.350Z,80.98
2019-05-06T20:40:51.841Z,81.02
2019-05-06T20:43:56.560Z,80.27
2019-05-06T20:47:03.108Z,80.08
2019-05-06T20:50:08.697Z,80.53
2019-05-06T20:53:13.023Z,81.04
2019-05-06T20:56:17.328Z,82.05
2019-05-06T20:59:22.897Z,82.18
2019-05-06T21:02:27.485Z,82.07
2019-05-06T21:05:32.421Z,82.00
2019-05-06T21:08:36.717Z,81.10
2019-05-06T21:11:42.136Z,80.43
2019-05-06T21:14:46.557Z,80.98
2019-05-06T21:17:50.906Z,81.53
2019-05-06T21:20:55.210Z,81.64
2019-05-06T21:23:59.500Z,81.48
2019-05-06T21:27:03.814Z,81.19
2019-05-06T21:30:08.877Z,81.33
2019-05-06T21:33:13.197Z,81.55
2019-05-06T21:36:17.485Z,81.65
2019-05-06T21:39:22.569Z,82.08
2019-05-06T21:42:26.833Z,82.24
2019-05-06T21:45:33.105Z,82.60
2019-05-06T21:48:37.151Z,82.65
2019-05-06T21:51:42.499Z,82.77
2019-05-06T21:54:46.999Z,82.75
2019-05-06T21:57:52.967Z,83.23
2019-05-06T22:01:06.085Z,83.25
2019-05-06T22:04:12.556Z,83.14
2019-05-06T22:07:16.517Z,82.94
2019-05-06T22:10:22.816Z,82.97
2019-05-06T22:13:26.805Z,82.41
2019-05-06T22:16:32.408Z,82.13
2019-05-06T22:19:36.728Z,81.62
2019-05-06T22:22:42.641Z,81.34
2019-05-06T22:25:47.002Z,81.81
2019-05-06T22:28:52.528Z,81.67
2019-05-06T22:31:56.895Z,81.88
2019-05-06T22:35:02.384Z,80.96
2019-05-06T22:38:07.157Z,80.37
2019-05-06T22:41:11.452Z,79.78
2019-05-06T22:44:17.116Z,80.02
2019-05-06T22:47:23.071Z,79.96
2019-05-06T22:50:27.489Z,80.42
2019-05-06T22:53:32.822Z,80.55
2019-05-06T22:56:37.123Z,80.25
2019-05-06T22:59:42.702Z,79.62
2019-05-06T23:02:53.047Z,79.79
2019-05-06T23:05:57.357Z,80.42
2019-05-06T23:09:02.563Z,81.16
2019-05-06T23:12:06.974Z,81.82
2019-05-06T23:15:12.093Z,82.04
2019-05-06T23:18:16.482Z,81.89
2019-05-06T23:21:23.221Z,81.91
2019-05-06T23:24:26.751Z,81.81
2019-05-06T23:27:31.037Z,81.88
2019-05-06T23:30:35.320Z,81.79
2019-05-06T23:33:39.592Z,81.69
2019-05-06T23:37:26.764Z,81.81
2019-05-06T23:41:06.614Z,81.81
2019-05-06T23:44:46.444Z,82.15
2019-05-06T23:48:26.130Z,82.15
2019-05-06T23:52:06.038Z,82.29
2019-05-06T23:55:45.826Z,82.91
2019-05-06T23:58:52.265Z,83.26
